Time;durP1;ratioP1;P1;durP2;ratioP2;P2;SDS_P1;SDS_P2;PMS_P1;PMS_P2;Temp;Humidity;BMP_temperature;BMP_pressure;BME280_temperature;BME280_humidity;BME280_pressure;Samples;Min_cycle;Max_cycle;Signal;HPM_P1;HPM_P2
2021/03/03 00:00:44;;;;;;;15.23;7.40;;;;;;;;;;10357200;28;20661;-62
2021/03/03 00:05:42;;;;;;;12.93;6.17;;;;;;;;;;10364618;28;20020;-64
2021/03/03 00:10:39;;;;;;;11.17;5.90;;;;;;;;;;10358584;28;20091;-65
2021/03/03 00:15:37;;;;;;;11.83;5.73;;;;;;;;;;10361027;28;20029;-63
2021/03/03 00:20:35;;;;;;;13.63;6.00;;;;;;;;;;10361329;28;20028;-64
2021/03/03 00:25:32;;;;;;;18.43;7.30;;;;;;;;;;10329776;22;20519;-64
2021/03/03 00:30:29;;;;;;;12.40;6.03;;;;;;;;;;10275135;28;20711;-64
2021/03/03 00:35:27;;;;;;;13.90;6.10;;;;;;;;;;10280793;28;20121;-64
2021/03/03 00:40:24;;;;;;;9.73;5.50;;;;;;;;;;10280189;28;20049;-64
2021/03/03 00:45:22;;;;;;;11.33;4.87;;;;;;;;;;10281745;28;20657;-64
2021/03/03 00:50:19;;;;;;;7.33;3.40;;;;;;;;;;10288477;28;20198;-64
2021/03/03 00:55:23;;;;;;;14.30;6.53;;;;;;;;;;10287163;28;20029;-63
2021/03/03 01:00:22;;;;;;;15.57;6.45;;;;;;;;;;10320783;22;20463;-67
2021/03/03 01:05:23;;;;;;;11.95;5.35;;;;;;;;;;10293182;28;20041;-67
2021/03/03 01:10:23;;;;;;;7.40;3.45;;;;;;;;;;10295946;28;20365;-67
2021/03/03 01:15:24;;;;;;;13.25;5.90;;;;;;;;;;10303207;28;20033;-67
2021/03/03 01:20:26;;;;;;;17.88;6.80;;;;;;;;;;10332585;28;20037;-65
2021/03/03 01:25:24;;;;;;;16.67;6.80;;;;;;;;;;10306022;28;20185;-66
2021/03/03 01:30:21;;;;;;;9.30;2.50;;;;;;;;;;10297109;28;20086;-65
2021/03/03 01:35:19;;;;;;;3.53;2.83;;;;;;;;;;10303804;28;20296;-65
2021/03/03 01:40:16;;;;;;;10.23;3.27;;;;;;;;;;10307431;28;20041;-67
2021/03/03 01:45:14;;;;;;;4.97;3.10;;;;;;;;;;10299695;28;20036;-66
2021/03/03 01:50:12;;;;;;;11.93;6.68;;;;;;;;;;10305211;28;20371;-65
2021/03/03 01:55:10;;;;;;;10.43;3.43;;;;;;;;;;10307353;28;20041;-66
2021/03/03 02:00:07;;;;;;;10.83;4.17;;;;;;;;;;10293957;28;20072;-65
2021/03/03 02:05:09;;;;;;;6.68;3.72;;;;;;;;;;10286120;28;20029;-66
2021/03/03 02:10:10;;;;;;;5.82;2.75;;;;;;;;;;10289904;28;20384;-66
2021/03/03 02:15:09;;;;;;;3.92;2.65;;;;;;;;;;10297079;28;20065;-66
2021/03/03 02:20:08;;;;;;;6.63;3.35;;;;;;;;;;10299245;28;20183;-65
2021/03/03 02:25:10;;;;;;;11.38;5.70;;;;;;;;;;10306123;28;20066;-65
2021/03/03 02:30:09;;;;;;;11.15;5.40;;;;;;;;;;10296099;28;20125;-66
2021/03/03 02:35:08;;;;;;;11.05;4.95;;;;;;;;;;10300981;28;20080;-65
2021/03/03 02:40:06;;;;;;;6.28;3.92;;;;;;;;;;10308297;28;20091;-66
2021/03/03 02:45:07;;;;;;;8.68;3.92;;;;;;;;;;10314637;28;20049;-66
2021/03/03 02:50:08;;;;;;;7.50;4.20;;;;;;;;;;10316087;28;20537;-66
2021/03/03 02:55:05;;;;;;;6.35;3.25;;;;;;;;;;10318470;28;20037;-65
2021/03/03 03:00:03;;;;;;;10.73;5.10;;;;;;;;;;10312883;28;20036;-66
2021/03/03 03:05:03;;;;;;;17.33;5.33;;;;;;;;;;10311546;28;20116;-66
2021/03/03 03:10:01;;;;;;;11.95;3.85;;;;;;;;;;10302646;28;20098;-66
2021/03/03 03:15:00;;;;;;;5.50;4.17;;;;;;;;;;10311193;28;20381;-66
2021/03/03 03:19:57;;;;;;;;;;;;;;;;;;10321327;28;20321;-66
2021/03/03 03:24:55;;;;;;;16.02;5.78;;;;;;;;;;10325767;28;19927;-67
2021/03/03 03:29:53;;;;;;;9.27;4.50;;;;;;;;;;10303854;28;20428;-67
2021/03/03 03:34:51;;;;;;;12.90;6.00;;;;;;;;;;10305241;28;20036;-68
2021/03/03 03:39:48;;;;;;;7.97;4.23;;;;;;;;;;10316218;28;20126;-67
2021/03/03 03:44:46;;;;;;;16.73;7.13;;;;;;;;;;10300364;28;20037;-66
2021/03/03 03:49:44;;;;;;;8.23;4.72;;;;;;;;;;10306673;28;20566;-67
2021/03/03 03:54:49;;;;;;;25.33;7.78;;;;;;;;;;10308422;28;20132;-67
2021/03/03 03:59:46;;;;;;;5.57;4.40;;;;;;;;;;10302958;28;20419;-68
2021/03/03 04:04:43;;;;;;;21.00;7.13;;;;;;;;;;10306050;28;20576;-66
2021/03/03 04:09:41;;;;;;;14.93;7.53;;;;;;;;;;10310240;28;20034;-66
2021/03/03 04:14:38;;;;;;;11.53;5.97;;;;;;;;;;10290450;28;20120;-66
2021/03/03 04:19:35;;;;;;;14.27;6.13;;;;;;;;;;10293605;28;20041;-65
2021/03/03 04:24:33;;;;;;;10.37;4.40;;;;;;;;;;10301247;28;20456;-65
2021/03/03 04:29:30;;;;;;;10.07;3.77;;;;;;;;;;10290033;28;20063;-67
2021/03/03 04:34:28;;;;;;;18.13;5.97;;;;;;;;;;10296966;28;20034;-65
2021/03/03 04:39:25;;;;;;;19.07;7.00;;;;;;;;;;10302413;28;20033;-66
2021/03/03 04:44:22;;;;;;;15.10;5.93;;;;;;;;;;10302410;28;20038;-65
2021/03/03 04:49:20;;;;;;;23.90;8.07;;;;;;;;;;10299901;28;20037;-66
2021/03/03 04:54:17;;;;;;;14.37;6.00;;;;;;;;;;10311689;28;20030;-66
2021/03/03 04:59:15;;;;;;;12.60;7.20;;;;;;;;;;10311942;28;20034;-65
2021/03/03 05:04:12;;;;;;;21.90;9.03;;;;;;;;;;10297178;28;20598;-65
2021/03/03 05:09:09;;;;;;;11.30;6.70;;;;;;;;;;10292426;28;20518;-66
2021/03/03 05:14:07;;;;;;;22.37;9.37;;;;;;;;;;10309762;28;20047;-67
2021/03/03 05:19:04;;;;;;;6.53;4.27;;;;;;;;;;10288232;28;20029;-65
2021/03/03 05:24:02;;;;;;;12.40;4.67;;;;;;;;;;10276013;28;20560;-65
2021/03/03 05:28:59;;;;;;;8.43;4.23;;;;;;;;;;10300327;28;20026;-66
2021/03/03 05:33:57;;;;;;;10.60;6.53;;;;;;;;;;10306539;28;20372;-66
2021/03/03 05:38:54;;;;;;;14.80;6.93;;;;;;;;;;10290886;28;20034;-66
2021/03/03 05:43:53;;;;;;;6.27;3.77;;;;;;;;;;10293170;28;20407;-66
2021/03/03 05:48:57;;;;;;;10.73;5.75;;;;;;;;;;10320818;22;20055;-65
2021/03/03 05:53:55;;;;;;;12.57;5.45;;;;;;;;;;10326881;28;20675;-62
2021/03/03 05:58:53;;;;;;;8.23;4.43;;;;;;;;;;10310593;28;20033;-62
2021/03/03 06:03:50;;;;;;;17.85;6.53;;;;;;;;;;10327097;28;20291;-62
2021/03/03 06:08:48;;;;;;;6.23;5.10;;;;;;;;;;10334179;28;20344;-63
2021/03/03 06:13:45;;;;;;;7.97;5.47;;;;;;;;;;10314077;28;20039;-63
2021/03/03 06:18:43;;;;;;;15.13;8.47;;;;;;;;;;10302349;28;20039;-64
2021/03/03 06:23:41;;;;;;;23.23;8.60;;;;;;;;;;10320416;22;21398;-64
2021/03/03 06:28:45;;;;;;;14.93;6.68;;;;;;;;;;10292174;28;20037;-64
2021/03/03 06:33:43;;;;;;;15.50;6.43;;;;;;;;;;10302361;28;20743;-64
2021/03/03 06:38:40;;;;;;;19.03;7.20;;;;;;;;;;10298473;28;22102;-63
2021/03/03 06:48:46;;;;;;;14.65;6.38;;;;;;;;;;10143864;28;20463;-62
2021/03/03 06:53:43;;;;;;;19.03;7.73;;;;;;;;;;10174494;28;20081;-64
2021/03/03 06:58:41;;;;;;;12.07;5.80;;;;;;;;;;10164143;28;20305;-61
2021/03/03 07:03:38;;;;;;;12.60;6.77;;;;;;;;;;10150278;28;20039;-61
2021/03/03 07:08:36;;;;;;;21.30;6.90;;;;;;;;;;10175762;28;20050;-61
2021/03/03 07:13:36;;;;;;;4.47;3.83;;;;;;;;;;10168334;28;20042;-62
2021/03/03 07:18:37;;;;;;;19.08;7.85;;;;;;;;;;10219410;22;20044;-65
2021/03/03 07:23:44;;;;;;;7.07;4.13;;;;;;;;;;10309395;28;20098;-64
2021/03/03 07:28:42;;;;;;;5.30;3.88;;;;;;;;;;10325275;28;20037;-64
2021/03/03 07:33:40;;;;;;;10.45;4.95;;;;;;;;;;10328012;28;20041;-64
2021/03/03 07:38:38;;;;;;;14.23;5.50;;;;;;;;;;10323675;28;20090;-64
2021/03/03 07:43:36;;;;;;;21.20;9.75;;;;;;;;;;10317739;28;20045;-64
2021/03/03 07:53:49;;;;;;;12.82;6.85;;;;;;;;;;11315146;22;20450;-66
2021/03/03 07:58:47;;;;;;;10.07;3.77;;;;;;;;;;10329026;28;20036;-66
2021/03/03 08:03:46;;;;;;;17.92;8.35;;;;;;;;;;10345936;28;20687;-66
2021/03/03 08:09:04;;;;;;;13.25;7.68;;;;;;;;;;10342762;28;20413;-65
2021/03/03 08:14:02;;;;;;;13.82;6.32;;;;;;;;;;10333774;28;20792;-65
2021/03/03 08:19:01;;;;;;;9.45;4.93;;;;;;;;;;10334194;28;20067;-66
2021/03/03 08:24:07;;;;;;;28.70;7.93;;;;;;;;;;10351438;28;20090;-66
2021/03/03 08:29:12;;;;;;;20.97;8.13;;;;;;;;;;10355023;28;20094;-64
2021/03/03 08:34:10;;;;;;;17.92;9.07;;;;;;;;;;10347831;28;20029;-64
2021/03/03 08:39:10;;;;;;;19.13;7.77;;;;;;;;;;10347193;28;20032;-65
2021/03/03 08:44:12;;;;;;;17.45;7.18;;;;;;;;;;10338484;28;20335;-64
2021/03/03 08:49:09;;;;;;;28.13;12.60;;;;;;;;;;10342409;28;20679;-64
2021/03/03 08:54:08;;;;;;;31.47;13.50;;;;;;;;;;10351411;28;20033;-65
2021/03/03 08:59:06;;;;;;;21.77;10.98;;;;;;;;;;10348620;28;20120;-65
2021/03/03 09:04:05;;;;;;;21.33;8.65;;;;;;;;;;10334815;28;20690;-60
2021/03/03 09:09:07;;;;;;;13.75;7.15;;;;;;;;;;10306991;22;20056;-63
2021/03/03 09:14:06;;;;;;;10.87;5.57;;;;;;;;;;10281612;28;20048;-66
2021/03/03 09:19:07;;;;;;;15.80;8.50;;;;;;;;;;10292798;28;20075;-64
2021/03/03 09:24:12;;;;;;;46.28;15.20;;;;;;;;;;10325383;28;20036;-62
2021/03/03 09:29:26;;;;;;;23.88;11.23;;;;;;;;;;10322233;28;20750;-63
2021/03/03 09:34:24;;;;;;;21.58;8.43;;;;;;;;;;10303844;28;20430;-63
2021/03/03 09:39:21;;;;;;;17.37;7.70;;;;;;;;;;10316298;28;20064;-62
2021/03/03 09:44:19;;;;;;;19.63;6.83;;;;;;;;;;10333982;28;20147;-62
2021/03/03 09:49:37;;;;;;;20.30;8.90;;;;;;;;;;10335720;28;20040;-62
2021/03/03 09:54:35;;;;;;;18.90;7.93;;;;;;;;;;10322690;28;20505;-61
2021/03/03 09:59:36;;;;;;;17.58;7.97;;;;;;;;;;10314089;28;20040;-63
2021/03/03 10:04:36;;;;;;;22.48;8.40;;;;;;;;;;10308697;28;20139;-67
2021/03/03 10:09:36;;;;;;;22.38;8.25;;;;;;;;;;10315327;28;20592;-61
2021/03/03 10:14:33;;;;;;;17.35;8.25;;;;;;;;;;10316646;28;20028;-62
2021/03/03 10:19:40;;;;;;;11.73;5.60;;;;;;;;;;10322913;28;20450;-61
2021/03/03 10:24:38;;;;;;;15.07;6.88;;;;;;;;;;10319994;28;20040;-61
2021/03/03 10:29:37;;;;;;;12.50;6.90;;;;;;;;;;10316782;28;20998;-60
2021/03/03 10:34:34;;;;;;;19.95;9.20;;;;;;;;;;10319699;28;20025;-61
2021/03/03 10:39:33;;;;;;;15.87;8.70;;;;;;;;;;10317624;28;20070;-62
2021/03/03 10:44:41;;;;;;;16.05;7.65;;;;;;;;;;10324246;28;20009;-62
2021/03/03 10:49:39;;;;;;;21.50;9.18;;;;;;;;;;10333289;28;20521;-60
2021/03/03 10:54:36;;;;;;;25.80;9.43;;;;;;;;;;10328416;28;20182;-62
2021/03/03 10:59:36;;;;;;;18.73;9.60;;;;;;;;;;10322740;28;20103;-62
2021/03/03 11:04:41;;;;;;;21.17;9.23;;;;;;;;;;10323400;28;20028;-61
2021/03/03 11:09:40;;;;;;;19.10;9.02;;;;;;;;;;10320105;28;20044;-64
2021/03/03 11:14:38;;;;;;;18.45;9.35;;;;;;;;;;10308876;28;20036;-62
2021/03/03 11:19:35;;;;;;;17.30;8.52;;;;;;;;;;10319216;28;20513;-62
2021/03/03 11:24:33;;;;;;;10.33;6.60;;;;;;;;;;10308464;28;20029;-60
2021/03/03 11:29:30;;;;;;;20.23;8.93;;;;;;;;;;10325926;28;20494;-61
2021/03/03 11:34:29;;;;;;;20.93;9.30;;;;;;;;;;10323778;28;20678;-61
2021/03/03 11:39:27;;;;;;;23.90;9.73;;;;;;;;;;10322654;28;20732;-62
2021/03/03 11:44:24;;;;;;;21.67;11.80;;;;;;;;;;10312451;28;20029;-61
2021/03/03 11:49:22;;;;;;;22.73;9.93;;;;;;;;;;10332009;28;20075;-62
2021/03/03 11:54:19;;;;;;;20.97;9.33;;;;;;;;;;10325765;28;20654;-61
2021/03/03 11:59:16;;;;;;;18.40;9.40;;;;;;;;;;10322234;28;20150;-61
2021/03/03 12:04:14;;;;;;;17.20;9.67;;;;;;;;;;10325543;28;20036;-62
2021/03/03 12:09:11;;;;;;;19.50;9.87;;;;;;;;;;10326154;28;20036;-61
2021/03/03 12:14:09;;;;;;;21.23;9.50;;;;;;;;;;10325840;28;20819;-62
2021/03/03 12:19:06;;;;;;;9.67;6.10;;;;;;;;;;10340350;28;20032;-62
2021/03/03 12:24:04;;;;;;;16.60;7.73;;;;;;;;;;10324526;28;20044;-60
2021/03/03 12:29:01;;;;;;;20.73;9.90;;;;;;;;;;10330006;28;20121;-61
2021/03/03 12:33:59;;;;;;;20.33;10.13;;;;;;;;;;10330094;28;20052;-60
2021/03/03 12:38:56;;;;;;;16.53;7.73;;;;;;;;;;10325825;28;20039;-61
2021/03/03 12:43:54;;;;;;;14.30;6.70;;;;;;;;;;10313323;28;20037;-62
2021/03/03 12:48:51;;;;;;;22.42;9.85;;;;;;;;;;10332142;28;20463;-61
2021/03/03 12:53:49;;;;;;;18.40;9.70;;;;;;;;;;10331145;28;20417;-62
2021/03/03 12:58:46;;;;;;;25.00;9.67;;;;;;;;;;10328854;28;20421;-61
2021/03/03 13:03:45;;;;;;;25.07;11.30;;;;;;;;;;10324110;28;20040;-62
2021/03/03 13:08:42;;;;;;;25.58;9.15;;;;;;;;;;10297489;28;20040;-62
2021/03/03 13:13:40;;;;;;;16.23;7.57;;;;;;;;;;10310706;28;21377;-62
2021/03/03 13:18:37;;;;;;;26.83;9.40;;;;;;;;;;10326689;28;20048;-61
2021/03/03 13:23:35;;;;;;;18.30;8.40;;;;;;;;;;10339886;28;20395;-62
2021/03/03 13:28:32;;;;;;;9.57;6.10;;;;;;;;;;10320558;28;20041;-63
2021/03/03 13:33:30;;;;;;;14.47;8.27;;;;;;;;;;10331362;28;20067;-62
2021/03/03 13:38:27;;;;;;;24.07;11.00;;;;;;;;;;10301487;28;21197;-62
2021/03/03 13:43:24;;;;;;;15.00;8.80;;;;;;;;;;10321498;28;20032;-60
2021/03/03 13:48:22;;;;;;;17.73;6.67;;;;;;;;;;10326247;28;20060;-61
2021/03/03 13:53:19;;;;;;;21.60;11.20;;;;;;;;;;10309329;28;20064;-60
2021/03/03 13:58:17;;;;;;;18.80;9.33;;;;;;;;;;10315379;28;20506;-61
2021/03/03 14:03:17;;;;;;;22.47;11.90;;;;;;;;;;10317102;28;20045;-63
2021/03/03 14:08:14;;;;;;;20.17;9.57;;;;;;;;;;10320152;28;20068;-63
2021/03/03 14:13:12;;;;;;;18.20;9.60;;;;;;;;;;10307254;28;20041;-62
2021/03/03 14:18:09;;;;;;;16.03;6.77;;;;;;;;;;10325593;28;20272;-62
2021/03/03 14:23:06;;;;;;;18.63;9.33;;;;;;;;;;10304397;28;20041;-59
2021/03/03 14:28:04;;;;;;;13.80;7.87;;;;;;;;;;10316208;28;20036;-62
2021/03/03 14:33:02;;;;;;;19.03;10.07;;;;;;;;;;10302417;28;20555;-62
2021/03/03 14:37:59;;;;;;;14.40;8.27;;;;;;;;;;10304516;28;21368;-61
2021/03/03 14:42:56;;;;;;;17.37;7.93;;;;;;;;;;10309665;28;20063;-61
2021/03/03 14:47:54;;;;;;;16.07;7.17;;;;;;;;;;10295875;28;20453;-61
2021/03/03 14:52:51;;;;;;;11.17;6.87;;;;;;;;;;10298664;28;20036;-63
2021/03/03 14:57:49;;;;;;;6.77;3.83;;;;;;;;;;10298467;28;20032;-61
2021/03/03 15:02:46;;;;;;;18.57;9.50;;;;;;;;;;10305689;28;20041;-62
2021/03/03 15:07:44;;;;;;;14.53;7.50;;;;;;;;;;10304573;28;20053;-59
2021/03/03 15:12:41;;;;;;;13.03;6.60;;;;;;;;;;10314438;28;20044;-61
2021/03/03 15:17:38;;;;;;;14.27;6.93;;;;;;;;;;10332618;28;20049;-59
2021/03/03 15:22:36;;;;;;;17.17;7.87;;;;;;;;;;10303967;28;20041;-60
2021/03/03 15:27:33;;;;;;;12.47;6.80;;;;;;;;;;10330307;28;20025;-61
2021/03/03 15:32:31;;;;;;;9.37;4.90;;;;;;;;;;10329378;28;20045;-60
2021/03/03 15:37:28;;;;;;;9.23;5.53;;;;;;;;;;10320708;28;20047;-60
2021/03/03 15:42:26;;;;;;;10.50;6.20;;;;;;;;;;10336375;28;20049;-60
2021/03/03 15:47:23;;;;;;;8.50;4.70;;;;;;;;;;10325544;28;20675;-60
2021/03/03 15:52:21;;;;;;;10.83;5.80;;;;;;;;;;10337899;28;20032;-62
2021/03/03 15:57:18;;;;;;;8.53;4.70;;;;;;;;;;10341308;28;20047;-61
2021/03/03 16:02:16;;;;;;;5.50;3.67;;;;;;;;;;10325227;28;20068;-61
2021/03/03 16:07:13;;;;;;;11.50;6.23;;;;;;;;;;10329689;28;20098;-62
2021/03/03 16:12:11;;;;;;;6.30;3.20;;;;;;;;;;10312172;28;20059;-61
2021/03/03 16:17:08;;;;;;;7.37;5.70;;;;;;;;;;10332716;28;20131;-62
2021/03/03 16:22:06;;;;;;;9.63;5.70;;;;;;;;;;10323006;28;20334;-61
2021/03/03 16:27:03;;;;;;;12.17;5.90;;;;;;;;;;10312140;28;20052;-62
2021/03/03 16:32:01;;;;;;;7.40;5.03;;;;;;;;;;10326274;28;20446;-61
2021/03/03 16:36:58;;;;;;;9.17;4.97;;;;;;;;;;10322381;28;20106;-61
2021/03/03 16:41:56;;;;;;;16.57;7.70;;;;;;;;;;10315259;28;20045;-65
2021/03/03 16:46:53;;;;;;;9.93;6.37;;;;;;;;;;10323692;28;20449;-63
2021/03/03 16:51:51;;;;;;;16.73;9.20;;;;;;;;;;10301684;28;20040;-61
2021/03/03 16:56:48;;;;;;;15.20;8.80;;;;;;;;;;10314886;28;20791;-63
2021/03/03 17:01:46;;;;;;;14.57;7.90;;;;;;;;;;10315801;28;20045;-61
2021/03/03 17:06:44;;;;;;;16.10;7.87;;;;;;;;;;10324049;28;20064;-64
2021/03/03 17:11:41;;;;;;;15.30;8.50;;;;;;;;;;10324611;28;20282;-62
2021/03/03 17:16:39;;;;;;;9.40;6.27;;;;;;;;;;10330931;28;20039;-61
2021/03/03 17:21:37;;;;;;;12.07;7.50;;;;;;;;;;10325452;28;20089;-65
2021/03/03 17:26:34;;;;;;;18.35;9.88;;;;;;;;;;10319064;28;20045;-64
2021/03/03 17:31:32;;;;;;;9.47;5.37;;;;;;;;;;10330448;28;20067;-65
2021/03/03 17:36:30;;;;;;;10.27;6.37;;;;;;;;;;10326810;28;20150;-62
2021/03/03 17:41:27;;;;;;;18.58;8.38;;;;;;;;;;10322962;28;20540;-63
2021/03/03 17:46:25;;;;;;;19.63;7.50;;;;;;;;;;10315085;28;20521;-63
2021/03/03 17:51:22;;;;;;;20.93;9.03;;;;;;;;;;10320893;28;20460;-63
2021/03/03 17:56:19;;;;;;;15.10;6.97;;;;;;;;;;10332977;28;20427;-62
2021/03/03 18:01:17;;;;;;;11.67;5.33;;;;;;;;;;10329176;28;20044;-62
2021/03/03 18:06:14;;;;;;;13.73;5.00;;;;;;;;;;10314456;28;20789;-63
2021/03/03 18:11:12;;;;;;;10.40;5.63;;;;;;;;;;10316363;28;21007;-63
2021/03/03 18:16:09;;;;;;;12.07;6.40;;;;;;;;;;10320606;28;21062;-66
2021/03/03 18:21:06;;;;;;;17.37;9.50;;;;;;;;;;10319120;28;20043;-61
2021/03/03 18:26:04;;;;;;;13.67;6.10;;;;;;;;;;10323531;28;20048;-62
2021/03/03 18:31:03;;;;;;;10.67;5.73;;;;;;;;;;10310658;28;20482;-63
2021/03/03 18:36:01;;;;;;;16.70;8.20;;;;;;;;;;10310559;28;20727;-61
2021/03/03 18:40:59;;;;;;;22.30;9.07;;;;;;;;;;10312850;28;20053;-62
2021/03/03 18:45:59;;;;;;;23.73;10.57;;;;;;;;;;10334444;28;20048;-61
2021/03/03 18:50:57;;;;;;;27.67;11.38;;;;;;;;;;10329001;28;20055;-64
2021/03/03 18:55:55;;;;;;;21.02;10.82;;;;;;;;;;10334579;28;20032;-61
2021/03/03 19:00:55;;;;;;;19.33;10.70;;;;;;;;;;10323714;28;20410;-63
2021/03/03 19:05:53;;;;;;;24.65;10.82;;;;;;;;;;10329944;28;20040;-64
2021/03/03 19:10:51;;;;;;;27.88;11.60;;;;;;;;;;10329389;28;20036;-63
2021/03/03 19:15:48;;;;;;;26.43;11.43;;;;;;;;;;10335494;28;20102;-65
2021/03/03 19:20:46;;;;;;;29.40;13.23;;;;;;;;;;10317835;28;20044;-63
2021/03/03 19:25:45;;;;;;;24.35;10.50;;;;;;;;;;10340070;28;21221;-63
2021/03/03 19:30:42;;;;;;;;;;;;;;;;;;10332517;28;20040;-63
2021/03/03 19:35:39;;;;;;;23.58;11.07;;;;;;;;;;10332763;28;22051;-65
2021/03/03 19:40:37;;;;;;;30.83;11.23;;;;;;;;;;10322969;28;20101;-65
2021/03/03 19:45:36;;;;;;;28.63;11.13;;;;;;;;;;10330976;28;20048;-63
2021/03/03 19:50:33;;;;;;;23.70;11.57;;;;;;;;;;10320921;28;20066;-65
2021/03/03 19:55:31;;;;;;;28.90;14.10;;;;;;;;;;10335405;28;20067;-66
2021/03/03 20:00:28;;;;;;;28.30;11.63;;;;;;;;;;10332572;28;20041;-64
2021/03/03 20:05:26;;;;;;;25.10;11.87;;;;;;;;;;10326062;28;20182;-62
2021/03/03 20:10:23;;;;;;;28.67;12.57;;;;;;;;;;10327830;28;20032;-65
2021/03/03 20:15:20;;;;;;;27.50;12.30;;;;;;;;;;10329768;28;20129;-63
2021/03/03 20:20:18;;;;;;;25.87;13.10;;;;;;;;;;10325167;28;20044;-62
2021/03/03 20:25:17;;;;;;;21.17;9.83;;;;;;;;;;10334232;28;20048;-64
2021/03/03 20:30:18;;;;;;;26.52;11.98;;;;;;;;;;10318952;28;20080;-63
2021/03/03 20:35:15;;;;;;;25.15;12.27;;;;;;;;;;10318018;28;20119;-62
2021/03/03 20:40:14;;;;;;;32.77;11.63;;;;;;;;;;10323409;28;20040;-64
2021/03/03 20:45:12;;;;;;;21.50;9.30;;;;;;;;;;10313672;28;20411;-63
2021/03/03 20:50:09;;;;;;;33.85;11.40;;;;;;;;;;10315722;28;20040;-63
2021/03/03 20:55:07;;;;;;;27.07;10.90;;;;;;;;;;10319770;28;20048;-64
2021/03/03 21:00:07;;;;;;;23.33;10.33;;;;;;;;;;10301473;28;20063;-65
2021/03/03 21:05:05;;;;;;;25.60;11.73;;;;;;;;;;10289153;28;20037;-62
2021/03/03 21:10:04;;;;;;;29.10;10.77;;;;;;;;;;10341848;28;20071;-60
2021/03/03 21:15:01;;;;;;;33.38;10.90;;;;;;;;;;10373038;28;20044;-61
2021/03/03 21:19:59;;;;;;;32.13;10.70;;;;;;;;;;10366294;28;20040;-61
2021/03/03 21:24:56;;;;;;;19.13;7.53;;;;;;;;;;10361634;28;20379;-63
2021/03/03 21:29:54;;;;;;;38.27;8.73;;;;;;;;;;10362030;28;20119;-62
2021/03/03 21:34:51;;;;;;;16.70;6.33;;;;;;;;;;10368695;28;20043;-61
2021/03/03 21:39:48;;;;;;;26.33;8.33;;;;;;;;;;10364484;28;20032;-60
2021/03/03 21:44:46;;;;;;;25.27;9.80;;;;;;;;;;10357111;28;20013;-58
2021/03/03 21:49:44;;;;;;;16.93;6.80;;;;;;;;;;10371483;28;20363;-60
2021/03/03 21:54:41;;;;;;;29.57;11.33;;;;;;;;;;10359254;28;20029;-60
2021/03/03 21:59:38;;;;;;;34.10;10.30;;;;;;;;;;10364761;28;20788;-59
2021/03/03 22:04:36;;;;;;;25.70;10.20;;;;;;;;;;10370160;28;20770;-60
2021/03/03 22:09:33;;;;;;;17.17;7.27;;;;;;;;;;10353883;28;20119;-59
2021/03/03 22:14:31;;;;;;;26.07;9.90;;;;;;;;;;10364240;28;20020;-60
2021/03/03 22:19:28;;;;;;;29.17;8.93;;;;;;;;;;10339408;28;20511;-61
2021/03/03 22:24:26;;;;;;;25.10;10.10;;;;;;;;;;10348082;28;20032;-59
2021/03/03 22:29:24;;;;;;;18.15;6.43;;;;;;;;;;10350375;28;20029;-59
2021/03/03 22:34:21;;;;;;;23.70;10.20;;;;;;;;;;10368833;28;20040;-58
2021/03/03 22:39:19;;;;;;;11.43;5.77;;;;;;;;;;10363717;28;20025;-60
2021/03/03 22:44:16;;;;;;;25.17;9.30;;;;;;;;;;10354907;28;20085;-60
2021/03/03 22:49:13;;;;;;;18.20;8.93;;;;;;;;;;10365228;28;20178;-58
2021/03/03 22:54:11;;;;;;;14.50;7.13;;;;;;;;;;10360790;28;20498;-61
2021/03/03 22:59:09;;;;;;;18.25;8.50;;;;;;;;;;10359036;28;20080;-61
2021/03/03 23:04:06;;;;;;;16.57;7.70;;;;;;;;;;10364739;28;20041;-60
2021/03/03 23:09:04;;;;;;;24.07;12.23;;;;;;;;;;10355921;28;20045;-59
2021/03/03 23:14:01;;;;;;;19.87;8.90;;;;;;;;;;10356060;28;20058;-61
2021/03/03 23:18:59;;;;;;;29.87;13.40;;;;;;;;;;10348369;28;20048;-61
2021/03/03 23:23:56;;;;;;;33.70;13.00;;;;;;;;;;10360586;28;20048;-60
2021/03/03 23:28:54;;;;;;;29.57;13.67;;;;;;;;;;10359553;28;20520;-61
2021/03/03 23:33:51;;;;;;;4.90;2.63;;;;;;;;;;10369950;28;20032;-61
2021/03/03 23:38:48;;;;;;;26.90;11.17;;;;;;;;;;10358392;28;20044;-61
2021/03/03 23:43:46;;;;;;;27.00;10.83;;;;;;;;;;10373427;28;20119;-61
2021/03/03 23:48:43;;;;;;;31.53;13.57;;;;;;;;;;10378204;28;20036;-60
2021/03/03 23:53:40;;;;;;;17.70;6.97;;;;;;;;;;10345069;28;20401;-59
2021/03/03 23:58:38;;;;;;;30.53;13.30;;;;;;;;;;10360936;28;20628;-60
